sensor_id;sensor_type;location;lat;lon;timestamp;P1;durP1;ratioP1;P2;durP2;ratioP2
76477;SDS011;65309;49.790;18.972;2023-07-30T00:02:25;2.22;;;1.60;;
76477;SDS011;65309;49.790;18.972;2023-07-30T00:07:27;2.33;;;1.63;;
76477;SDS011;65309;49.790;18.972;2023-07-30T00:12:30;2.10;;;1.30;;
76477;SDS011;65309;49.790;18.972;2023-07-30T00:17:32;2.90;;;1.13;;
76477;SDS011;65309;49.790;18.972;2023-07-30T00:22:34;2.53;;;1.50;;
76477;SDS011;65309;49.790;18.972;2023-07-30T00:27:38;2.53;;;1.73;;
76477;SDS011;65309;49.790;18.972;2023-07-30T00:32:40;2.60;;;1.48;;
76477;SDS011;65309;49.790;18.972;2023-07-30T00:37:46;2.50;;;1.50;;
76477;SDS011;65309;49.790;18.972;2023-07-30T00:42:50;3.45;;;1.80;;
76477;SDS011;65309;49.790;18.972;2023-07-30T00:47:52;2.83;;;1.70;;
76477;SDS011;65309;49.790;18.972;2023-07-30T00:52:54;3.80;;;1.77;;
76477;SDS011;65309;49.790;18.972;2023-07-30T00:57:57;3.67;;;1.55;;
76477;SDS011;65309;49.790;18.972;2023-07-30T01:03:00;2.05;;;1.27;;
76477;SDS011;65309;49.790;18.972;2023-07-30T01:08:02;3.80;;;1.30;;
76477;SDS011;65309;49.790;18.972;2023-07-30T01:13:06;2.78;;;1.35;;
76477;SDS011;65309;49.790;18.972;2023-07-30T01:18:11;1.77;;;1.17;;
76477;SDS011;65309;49.790;18.972;2023-07-30T01:23:14;2.80;;;1.40;;
76477;SDS011;65309;49.790;18.972;2023-07-30T01:28:16;2.50;;;1.30;;
76477;SDS011;65309;49.790;18.972;2023-07-30T01:33:20;1.90;;;1.35;;
76477;SDS011;65309;49.790;18.972;2023-07-30T01:38:24;2.20;;;1.40;;
76477;SDS011;65309;49.790;18.972;2023-07-30T01:43:27;1.98;;;1.40;;
76477;SDS011;65309;49.790;18.972;2023-07-30T01:48:29;1.95;;;1.30;;
76477;SDS011;65309;49.790;18.972;2023-07-30T01:53:33;2.65;;;1.40;;
76477;SDS011;65309;49.790;18.972;2023-07-30T01:58:35;3.35;;;1.92;;
76477;SDS011;65309;49.790;18.972;2023-07-30T02:03:37;3.88;;;1.40;;
76477;SDS011;65309;49.790;18.972;2023-07-30T02:08:40;1.80;;;1.35;;
76477;SDS011;65309;49.790;18.972;2023-07-30T02:13:42;4.60;;;1.60;;
76477;SDS011;65309;49.790;18.972;2023-07-30T02:18:44;2.25;;;1.40;;
76477;SDS011;65309;49.790;18.972;2023-07-30T02:23:48;3.08;;;1.63;;
76477;SDS011;65309;49.790;18.972;2023-07-30T02:28:50;3.13;;;1.48;;
76477;SDS011;65309;49.790;18.972;2023-07-30T02:33:52;2.35;;;1.55;;
76477;SDS011;65309;49.790;18.972;2023-07-30T02:38:55;2.65;;;1.73;;
76477;SDS011;65309;49.790;18.972;2023-07-30T02:43:57;3.33;;;1.60;;
76477;SDS011;65309;49.790;18.972;2023-07-30T02:48:59;3.05;;;1.63;;
76477;SDS011;65309;49.790;18.972;2023-07-30T02:54:05;2.45;;;1.75;;
76477;SDS011;65309;49.790;18.972;2023-07-30T02:59:08;3.72;;;1.80;;
76477;SDS011;65309;49.790;18.972;2023-07-30T03:04:10;2.67;;;1.70;;
76477;SDS011;65309;49.790;18.972;2023-07-30T03:09:14;2.60;;;1.80;;
76477;SDS011;65309;49.790;18.972;2023-07-30T03:14:16;3.58;;;1.98;;
76477;SDS011;65309;49.790;18.972;2023-07-30T03:19:22;3.40;;;1.80;;
76477;SDS011;65309;49.790;18.972;2023-07-30T03:24:25;3.25;;;2.10;;
76477;SDS011;65309;49.790;18.972;2023-07-30T03:29:27;2.92;;;1.65;;
76477;SDS011;65309;49.790;18.972;2023-07-30T03:34:29;2.13;;;1.55;;
76477;SDS011;65309;49.790;18.972;2023-07-30T03:39:33;3.38;;;1.90;;
76477;SDS011;65309;49.790;18.972;2023-07-30T03:44:35;2.35;;;1.73;;
76477;SDS011;65309;49.790;18.972;2023-07-30T03:49:37;5.22;;;1.50;;
76477;SDS011;65309;49.790;18.972;2023-07-30T03:54:40;2.30;;;1.60;;
76477;SDS011;65309;49.790;18.972;2023-07-30T03:59:42;2.35;;;1.50;;
76477;SDS011;65309;49.790;18.972;2023-07-30T04:04:45;2.20;;;1.30;;
76477;SDS011;65309;49.790;18.972;2023-07-30T04:09:49;2.33;;;1.83;;
76477;SDS011;65309;49.790;18.972;2023-07-30T04:14:51;4.03;;;1.70;;
76477;SDS011;65309;49.790;18.972;2023-07-30T04:19:53;2.00;;;1.40;;
76477;SDS011;65309;49.790;18.972;2023-07-30T04:24:56;2.65;;;1.60;;
76477;SDS011;65309;49.790;18.972;2023-07-30T04:29:58;2.17;;;1.45;;
76477;SDS011;65309;49.790;18.972;2023-07-30T04:35:01;1.90;;;1.23;;
76477;SDS011;65309;49.790;18.972;2023-07-30T04:40:06;1.95;;;1.23;;
76477;SDS011;65309;49.790;18.972;2023-07-30T04:45:09;1.83;;;1.10;;
76477;SDS011;65309;49.790;18.972;2023-07-30T04:50:11;2.88;;;1.67;;
76477;SDS011;65309;49.790;18.972;2023-07-30T04:55:15;2.55;;;1.30;;
76477;SDS011;65309;49.790;18.972;2023-07-30T05:00:17;2.50;;;1.60;;
76477;SDS011;65309;49.790;18.972;2023-07-30T05:05:19;3.20;;;1.50;;
76477;SDS011;65309;49.790;18.972;2023-07-30T05:10:22;2.45;;;1.55;;
76477;SDS011;65309;49.790;18.972;2023-07-30T05:15:25;1.77;;;1.23;;
76477;SDS011;65309;49.790;18.972;2023-07-30T05:20:28;1.80;;;1.30;;
76477;SDS011;65309;49.790;18.972;2023-07-30T05:25:31;2.35;;;1.38;;
76477;SDS011;65309;49.790;18.972;2023-07-30T05:30:33;2.50;;;1.60;;
76477;SDS011;65309;49.790;18.972;2023-07-30T05:35:35;3.50;;;1.45;;
76477;SDS011;65309;49.790;18.972;2023-07-30T05:40:39;2.30;;;1.50;;
76477;SDS011;65309;49.790;18.972;2023-07-30T05:45:42;3.05;;;1.55;;
76477;SDS011;65309;49.790;18.972;2023-07-30T05:50:44;3.85;;;1.55;;
76477;SDS011;65309;49.790;18.972;2023-07-30T05:55:48;2.60;;;1.55;;
76477;SDS011;65309;49.790;18.972;2023-07-30T06:00:50;3.00;;;1.50;;
76477;SDS011;65309;49.790;18.972;2023-07-30T06:05:52;2.00;;;1.50;;
76477;SDS011;65309;49.790;18.972;2023-07-30T06:10:56;1.60;;;1.30;;
76477;SDS011;65309;49.790;18.972;2023-07-30T06:16:01;2.10;;;1.42;;
76477;SDS011;65309;49.790;18.972;2023-07-30T06:21:04;2.47;;;1.60;;
76477;SDS011;65309;49.790;18.972;2023-07-30T06:26:07;3.95;;;1.48;;
76477;SDS011;65309;49.790;18.972;2023-07-30T06:31:09;2.38;;;1.45;;
76477;SDS011;65309;49.790;18.972;2023-07-30T06:36:11;3.05;;;1.58;;
76477;SDS011;65309;49.790;18.972;2023-07-30T06:41:15;3.67;;;1.52;;
76477;SDS011;65309;49.790;18.972;2023-07-30T06:46:17;2.65;;;1.80;;
76477;SDS011;65309;49.790;18.972;2023-07-30T06:51:19;2.83;;;1.77;;
76477;SDS011;65309;49.790;18.972;2023-07-30T06:56:23;2.90;;;1.55;;
76477;SDS011;65309;49.790;18.972;2023-07-30T07:01:25;4.30;;;2.00;;
76477;SDS011;65309;49.790;18.972;2023-07-30T07:06:27;2.95;;;2.35;;
76477;SDS011;65309;49.790;18.972;2023-07-30T07:11:31;3.63;;;2.17;;
76477;SDS011;65309;49.790;18.972;2023-07-30T07:16:33;3.45;;;2.20;;
76477;SDS011;65309;49.790;18.972;2023-07-30T07:21:35;6.38;;;2.63;;
76477;SDS011;65309;49.790;18.972;2023-07-30T07:26:39;3.47;;;1.92;;
76477;SDS011;65309;49.790;18.972;2023-07-30T07:31:41;5.97;;;2.67;;
76477;SDS011;65309;49.790;18.972;2023-07-30T07:36:43;3.80;;;2.78;;
76477;SDS011;65309;49.790;18.972;2023-07-30T07:41:47;4.00;;;2.35;;
76477;SDS011;65309;49.790;18.972;2023-07-30T07:46:49;3.15;;;2.33;;
76477;SDS011;65309;49.790;18.972;2023-07-30T07:51:51;3.25;;;2.25;;
76477;SDS011;65309;49.790;18.972;2023-07-30T07:56:55;3.63;;;2.28;;
76477;SDS011;65309;49.790;18.972;2023-07-30T08:01:57;3.30;;;2.15;;
76477;SDS011;65309;49.790;18.972;2023-07-30T08:06:59;4.53;;;2.38;;
76477;SDS011;65309;49.790;18.972;2023-07-30T08:12:06;3.83;;;2.40;;
76477;SDS011;65309;49.790;18.972;2023-07-30T08:17:09;2.80;;;1.83;;
76477;SDS011;65309;49.790;18.972;2023-07-30T08:22:11;3.63;;;1.98;;
76477;SDS011;65309;49.790;18.972;2023-07-30T08:27:14;4.68;;;1.67;;
76477;SDS011;65309;49.790;18.972;2023-07-30T08:32:17;4.68;;;1.90;;
76477;SDS011;65309;49.790;18.972;2023-07-30T08:37:19;3.15;;;1.67;;
76477;SDS011;65309;49.790;18.972;2023-07-30T08:42:22;1.92;;;1.52;;
76477;SDS011;65309;49.790;18.972;2023-07-30T08:47:24;1.88;;;1.52;;
76477;SDS011;65309;49.790;18.972;2023-07-30T08:52:27;2.20;;;1.60;;
76477;SDS011;65309;49.790;18.972;2023-07-30T08:57:33;2.55;;;1.75;;
76477;SDS011;65309;49.790;18.972;2023-07-30T09:02:37;2.22;;;1.60;;
76477;SDS011;65309;49.790;18.972;2023-07-30T09:07:41;3.40;;;1.98;;
76477;SDS011;65309;49.790;18.972;2023-07-30T09:12:44;3.03;;;1.83;;
76477;SDS011;65309;49.790;18.972;2023-07-30T09:17:54;3.08;;;1.65;;
76477;SDS011;65309;49.790;18.972;2023-07-30T09:22:57;3.15;;;1.80;;
76477;SDS011;65309;49.790;18.972;2023-07-30T09:28:01;5.78;;;2.55;;
76477;SDS011;65309;49.790;18.972;2023-07-30T09:33:03;3.35;;;2.10;;
76477;SDS011;65309;49.790;18.972;2023-07-30T09:38:05;3.45;;;2.10;;
76477;SDS011;65309;49.790;18.972;2023-07-30T09:43:09;3.60;;;2.70;;
76477;SDS011;65309;49.790;18.972;2023-07-30T09:48:11;3.20;;;1.83;;
76477;SDS011;65309;49.790;18.972;2023-07-30T09:53:13;3.72;;;2.17;;
76477;SDS011;65309;49.790;18.972;2023-07-30T09:58:19;5.53;;;2.75;;
76477;SDS011;65309;49.790;18.972;2023-07-30T10:03:21;3.70;;;2.50;;
76477;SDS011;65309;49.790;18.972;2023-07-30T10:08:24;7.25;;;2.78;;
76477;SDS011;65309;49.790;18.972;2023-07-30T10:13:29;3.05;;;1.83;;
76477;SDS011;65309;49.790;18.972;2023-07-30T10:18:38;3.03;;;2.08;;
76477;SDS011;65309;49.790;18.972;2023-07-30T10:23:45;3.20;;;2.13;;
76477;SDS011;65309;49.790;18.972;2023-07-30T10:28:49;2.90;;;1.90;;
76477;SDS011;65309;49.790;18.972;2023-07-30T10:34:10;2.85;;;1.73;;
76477;SDS011;65309;49.790;18.972;2023-07-30T10:39:14;3.97;;;1.88;;
76477;SDS011;65309;49.790;18.972;2023-07-30T10:44:19;2.40;;;1.70;;
76477;SDS011;65309;49.790;18.972;2023-07-30T10:49:24;3.13;;;2.00;;
76477;SDS011;65309;49.790;18.972;2023-07-30T10:54:32;4.45;;;1.90;;
76477;SDS011;65309;49.790;18.972;2023-07-30T10:59:36;2.63;;;2.00;;
76477;SDS011;65309;49.790;18.972;2023-07-30T11:04:39;3.00;;;2.03;;
76477;SDS011;65309;49.790;18.972;2023-07-30T11:09:41;2.58;;;1.70;;
76477;SDS011;65309;49.790;18.972;2023-07-30T11:14:44;3.58;;;2.10;;
76477;SDS011;65309;49.790;18.972;2023-07-30T11:19:46;3.70;;;2.70;;
76477;SDS011;65309;49.790;18.972;2023-07-30T11:24:49;3.85;;;1.70;;
76477;SDS011;65309;49.790;18.972;2023-07-30T11:29:56;2.35;;;1.80;;
76477;SDS011;65309;49.790;18.972;2023-07-30T11:34:58;2.75;;;2.10;;
76477;SDS011;65309;49.790;18.972;2023-07-30T11:40:02;2.90;;;1.85;;
76477;SDS011;65309;49.790;18.972;2023-07-30T11:45:18;2.85;;;1.70;;
76477;SDS011;65309;49.790;18.972;2023-07-30T11:50:22;2.60;;;1.80;;
76477;SDS011;65309;49.790;18.972;2023-07-30T11:55:24;3.53;;;2.03;;
76477;SDS011;65309;49.790;18.972;2023-07-30T12:00:40;2.78;;;2.03;;
76477;SDS011;65309;49.790;18.972;2023-07-30T12:05:44;3.80;;;2.05;;
76477;SDS011;65309;49.790;18.972;2023-07-30T12:10:51;5.00;;;2.05;;
76477;SDS011;65309;49.790;18.972;2023-07-30T12:15:55;2.83;;;1.90;;
76477;SDS011;65309;49.790;18.972;2023-07-30T12:20:59;3.05;;;1.90;;
76477;SDS011;65309;49.790;18.972;2023-07-30T12:26:01;3.13;;;2.00;;
76477;SDS011;65309;49.790;18.972;2023-07-30T12:31:07;2.75;;;2.08;;
76477;SDS011;65309;49.790;18.972;2023-07-30T12:36:09;4.55;;;2.47;;
76477;SDS011;65309;49.790;18.972;2023-07-30T12:41:11;2.20;;;1.73;;
76477;SDS011;65309;49.790;18.972;2023-07-30T12:46:15;6.38;;;2.67;;
76477;SDS011;65309;49.790;18.972;2023-07-30T12:51:17;2.83;;;1.92;;
76477;SDS011;65309;49.790;18.972;2023-07-30T12:56:19;3.22;;;2.05;;
76477;SDS011;65309;49.790;18.972;2023-07-30T13:01:22;2.72;;;2.00;;
76477;SDS011;65309;49.790;18.972;2023-07-30T13:06:25;3.75;;;1.70;;
76477;SDS011;65309;49.790;18.972;2023-07-30T13:11:28;3.05;;;2.08;;
76477;SDS011;65309;49.790;18.972;2023-07-30T13:16:32;3.20;;;1.80;;
76477;SDS011;65309;49.790;18.972;2023-07-30T13:21:35;2.80;;;2.10;;
76477;SDS011;65309;49.790;18.972;2023-07-30T13:26:37;2.13;;;1.70;;
76477;SDS011;65309;49.790;18.972;2023-07-30T13:31:41;3.20;;;1.80;;
76477;SDS011;65309;49.790;18.972;2023-07-30T13:36:44;2.70;;;1.85;;
76477;SDS011;65309;49.790;18.972;2023-07-30T13:41:46;2.90;;;2.25;;
76477;SDS011;65309;49.790;18.972;2023-07-30T13:46:49;4.15;;;2.33;;
76477;SDS011;65309;49.790;18.972;2023-07-30T13:51:52;2.88;;;1.77;;
76477;SDS011;65309;49.790;18.972;2023-07-30T13:56:54;2.17;;;1.58;;
76477;SDS011;65309;49.790;18.972;2023-07-30T14:01:58;1.90;;;1.50;;
76477;SDS011;65309;49.790;18.972;2023-07-30T14:07:00;3.25;;;1.60;;
76477;SDS011;65309;49.790;18.972;2023-07-30T14:12:02;8.45;;;2.00;;
76477;SDS011;65309;49.790;18.972;2023-07-30T14:17:06;2.67;;;2.00;;
76477;SDS011;65309;49.790;18.972;2023-07-30T14:22:08;2.92;;;2.00;;
76477;SDS011;65309;49.790;18.972;2023-07-30T14:27:11;2.80;;;1.65;;
76477;SDS011;65309;49.790;18.972;2023-07-30T14:32:14;2.58;;;1.67;;
76477;SDS011;65309;49.790;18.972;2023-07-30T14:37:16;2.92;;;1.73;;
76477;SDS011;65309;49.790;18.972;2023-07-30T14:42:18;3.50;;;1.90;;
76477;SDS011;65309;49.790;18.972;2023-07-30T14:47:21;4.68;;;2.33;;
76477;SDS011;65309;49.790;18.972;2023-07-30T14:52:24;4.65;;;2.17;;
76477;SDS011;65309;49.790;18.972;2023-07-30T14:57:26;3.05;;;1.90;;
76477;SDS011;65309;49.790;18.972;2023-07-30T15:02:30;2.40;;;1.83;;
76477;SDS011;65309;49.790;18.972;2023-07-30T15:07:32;2.63;;;2.10;;
76477;SDS011;65309;49.790;18.972;2023-07-30T15:12:35;2.53;;;1.90;;
76477;SDS011;65309;49.790;18.972;2023-07-30T15:17:38;3.20;;;1.90;;
76477;SDS011;65309;49.790;18.972;2023-07-30T15:22:40;3.03;;;1.77;;
76477;SDS011;65309;49.790;18.972;2023-07-30T15:27:42;2.63;;;1.88;;
76477;SDS011;65309;49.790;18.972;2023-07-30T15:32:46;2.92;;;1.98;;
76477;SDS011;65309;49.790;18.972;2023-07-30T15:37:48;2.60;;;2.03;;
76477;SDS011;65309;49.790;18.972;2023-07-30T15:42:50;2.80;;;1.88;;
76477;SDS011;65309;49.790;18.972;2023-07-30T15:47:54;4.65;;;2.30;;
76477;SDS011;65309;49.790;18.972;2023-07-30T15:52:58;3.25;;;2.20;;
76477;SDS011;65309;49.790;18.972;2023-07-30T15:58:00;3.80;;;2.35;;
76477;SDS011;65309;49.790;18.972;2023-07-30T16:03:03;9.35;;;2.33;;
76477;SDS011;65309;49.790;18.972;2023-07-30T16:08:08;6.53;;;2.33;;
76477;SDS011;65309;49.790;18.972;2023-07-30T16:13:10;3.22;;;2.22;;
76477;SDS011;65309;49.790;18.972;2023-07-30T16:18:13;2.95;;;2.30;;
76477;SDS011;65309;49.790;18.972;2023-07-30T16:23:15;2.20;;;1.70;;
76477;SDS011;65309;49.790;18.972;2023-07-30T16:28:17;3.05;;;1.75;;
76477;SDS011;65309;49.790;18.972;2023-07-30T16:33:21;3.20;;;1.95;;
76477;SDS011;65309;49.790;18.972;2023-07-30T16:38:23;3.53;;;2.05;;
76477;SDS011;65309;49.790;18.972;2023-07-30T16:43:25;2.40;;;1.90;;
76477;SDS011;65309;49.790;18.972;2023-07-30T16:48:28;2.22;;;1.80;;
76477;SDS011;65309;49.790;18.972;2023-07-30T16:53:30;2.80;;;2.22;;
76477;SDS011;65309;49.790;18.972;2023-07-30T16:58:32;2.22;;;1.65;;
76477;SDS011;65309;49.790;18.972;2023-07-30T17:03:36;3.72;;;1.80;;
76477;SDS011;65309;49.790;18.972;2023-07-30T17:08:39;5.38;;;1.77;;
76477;SDS011;65309;49.790;18.972;2023-07-30T17:13:41;3.92;;;2.00;;
76477;SDS011;65309;49.790;18.972;2023-07-30T17:18:47;2.10;;;1.70;;
76477;SDS011;65309;49.790;18.972;2023-07-30T17:23:52;2.92;;;1.70;;
76477;SDS011;65309;49.790;18.972;2023-07-30T17:28:54;2.80;;;2.00;;
76477;SDS011;65309;49.790;18.972;2023-07-30T17:33:57;3.28;;;1.63;;
76477;SDS011;65309;49.790;18.972;2023-07-30T17:39:00;9.75;;;2.35;;
76477;SDS011;65309;49.790;18.972;2023-07-30T17:44:03;2.75;;;1.95;;
76477;SDS011;65309;49.790;18.972;2023-07-30T17:49:06;2.75;;;1.60;;
76477;SDS011;65309;49.790;18.972;2023-07-30T17:54:09;5.38;;;1.70;;
76477;SDS011;65309;49.790;18.972;2023-07-30T17:59:11;2.45;;;1.58;;
76477;SDS011;65309;49.790;18.972;2023-07-30T18:04:14;2.42;;;1.60;;
76477;SDS011;65309;49.790;18.972;2023-07-30T18:09:16;3.55;;;1.83;;
76477;SDS011;65309;49.790;18.972;2023-07-30T18:14:19;2.25;;;1.60;;
76477;SDS011;65309;49.790;18.972;2023-07-30T18:19:23;3.17;;;1.77;;
76477;SDS011;65309;49.790;18.972;2023-07-30T18:24:25;2.58;;;1.50;;
76477;SDS011;65309;49.790;18.972;2023-07-30T18:29:28;2.92;;;2.10;;
76477;SDS011;65309;49.790;18.972;2023-07-30T18:34:31;2.83;;;2.08;;
76477;SDS011;65309;49.790;18.972;2023-07-30T18:39:35;2.17;;;1.50;;
76477;SDS011;65309;49.790;18.972;2023-07-30T18:44:37;1.83;;;1.45;;
76477;SDS011;65309;49.790;18.972;2023-07-30T18:49:41;2.45;;;1.70;;
76477;SDS011;65309;49.790;18.972;2023-07-30T18:54:43;6.70;;;1.88;;
76477;SDS011;65309;49.790;18.972;2023-07-30T18:59:45;4.97;;;1.73;;
76477;SDS011;65309;49.790;18.972;2023-07-30T19:04:49;2.67;;;1.60;;
76477;SDS011;65309;49.790;18.972;2023-07-30T19:09:51;5.03;;;1.77;;
76477;SDS011;65309;49.790;18.972;2023-07-30T19:14:53;1.75;;;1.25;;
76477;SDS011;65309;49.790;18.972;2023-07-30T19:19:56;3.92;;;1.77;;
76477;SDS011;65309;49.790;18.972;2023-07-30T19:24:58;5.63;;;1.65;;
76477;SDS011;65309;49.790;18.972;2023-07-30T19:30:00;2.08;;;1.25;;
76477;SDS011;65309;49.790;18.972;2023-07-30T19:35:04;7.03;;;2.03;;
76477;SDS011;65309;49.790;18.972;2023-07-30T19:40:07;3.40;;;1.63;;
76477;SDS011;65309;49.790;18.972;2023-07-30T19:45:10;1.95;;;1.33;;
76477;SDS011;65309;49.790;18.972;2023-07-30T19:50:14;1.85;;;1.45;;
76477;SDS011;65309;49.790;18.972;2023-07-30T19:55:22;2.15;;;1.40;;
76477;SDS011;65309;49.790;18.972;2023-07-30T20:00:25;4.68;;;1.60;;
76477;SDS011;65309;49.790;18.972;2023-07-30T20:05:32;1.67;;;1.02;;
76477;SDS011;65309;49.790;18.972;2023-07-30T20:10:34;4.90;;;1.70;;
76477;SDS011;65309;49.790;18.972;2023-07-30T20:15:36;1.40;;;1.15;;
76477;SDS011;65309;49.790;18.972;2023-07-30T20:20:40;3.08;;;1.20;;
76477;SDS011;65309;49.790;18.972;2023-07-30T20:25:42;3.40;;;1.10;;
76477;SDS011;65309;49.790;18.972;2023-07-30T20:30:46;1.35;;;0.95;;
76477;SDS011;65309;49.790;18.972;2023-07-30T20:35:50;2.42;;;1.30;;
76477;SDS011;65309;49.790;18.972;2023-07-30T20:40:53;2.00;;;1.55;;
76477;SDS011;65309;49.790;18.972;2023-07-30T20:45:55;1.63;;;1.30;;
76477;SDS011;65309;49.790;18.972;2023-07-30T20:50:58;2.05;;;1.38;;
76477;SDS011;65309;49.790;18.972;2023-07-30T20:56:00;1.80;;;1.20;;
76477;SDS011;65309;49.790;18.972;2023-07-30T21:01:02;2.95;;;1.33;;
76477;SDS011;65309;49.790;18.972;2023-07-30T21:06:06;1.67;;;1.10;;
76477;SDS011;65309;49.790;18.972;2023-07-30T21:11:08;1.85;;;1.13;;
76477;SDS011;65309;49.790;18.972;2023-07-30T21:16:10;2.13;;;1.40;;
76477;SDS011;65309;49.790;18.972;2023-07-30T21:21:13;2.35;;;1.10;;
76477;SDS011;65309;49.790;18.972;2023-07-30T21:26:15;1.88;;;1.15;;
76477;SDS011;65309;49.790;18.972;2023-07-30T21:31:18;2.00;;;1.38;;
76477;SDS011;65309;49.790;18.972;2023-07-30T21:36:21;2.65;;;1.42;;
76477;SDS011;65309;49.790;18.972;2023-07-30T21:41:23;2.55;;;1.23;;
76477;SDS011;65309;49.790;18.972;2023-07-30T21:46:25;2.75;;;1.20;;
76477;SDS011;65309;49.790;18.972;2023-07-30T21:51:29;1.58;;;1.30;;
76477;SDS011;65309;49.790;18.972;2023-07-30T21:56:31;1.85;;;1.35;;
76477;SDS011;65309;49.790;18.972;2023-07-30T22:01:33;2.30;;;1.45;;
76477;SDS011;65309;49.790;18.972;2023-07-30T22:06:36;2.15;;;1.70;;
76477;SDS011;65309;49.790;18.972;2023-07-30T22:11:39;1.90;;;1.30;;
76477;SDS011;65309;49.790;18.972;2023-07-30T22:16:41;1.95;;;1.30;;
76477;SDS011;65309;49.790;18.972;2023-07-30T22:21:46;3.65;;;1.90;;
76477;SDS011;65309;49.790;18.972;2023-07-30T22:26:48;3.15;;;1.88;;
76477;SDS011;65309;49.790;18.972;2023-07-30T22:31:50;2.80;;;1.90;;
76477;SDS011;65309;49.790;18.972;2023-07-30T22:36:54;3.17;;;1.70;;
76477;SDS011;65309;49.790;18.972;2023-07-30T22:41:56;3.08;;;2.03;;
76477;SDS011;65309;49.790;18.972;2023-07-30T22:46:58;2.95;;;1.60;;
76477;SDS011;65309;49.790;18.972;2023-07-30T22:52:02;2.72;;;1.98;;
76477;SDS011;65309;49.790;18.972;2023-07-30T22:57:04;3.78;;;2.05;;
76477;SDS011;65309;49.790;18.972;2023-07-30T23:02:07;3.13;;;1.42;;
76477;SDS011;65309;49.790;18.972;2023-07-30T23:07:11;2.83;;;1.80;;
76477;SDS011;65309;49.790;18.972;2023-07-30T23:12:13;4.40;;;1.70;;
76477;SDS011;65309;49.790;18.972;2023-07-30T23:17:15;3.15;;;2.15;;
76477;SDS011;65309;49.790;18.972;2023-07-30T23:22:18;7.35;;;2.05;;
76477;SDS011;65309;49.790;18.972;2023-07-30T23:27:20;3.17;;;2.30;;
76477;SDS011;65309;49.790;18.972;2023-07-30T23:32:22;4.25;;;1.90;;
76477;SDS011;65309;49.790;18.972;2023-07-30T23:42:29;4.97;;;2.28;;
76477;SDS011;65309;49.790;18.972;2023-07-30T23:47:31;2.92;;;2.00;;
76477;SDS011;65309;49.790;18.972;2023-07-30T23:52:35;3.65;;;2.45;;
76477;SDS011;65309;49.790;18.972;2023-07-30T23:57:37;3.05;;;1.67;;
